This is the latest recevied weather packets stored in our database for station/object SK4BW-10. If no packets are shown the sender has not sent any weather packets the latest 10 day(s).
| Time | Temp. | Humidity | Pressure | Rain* | Wind** | Luminosity | Snow |
|---|---|---|---|---|---|---|---|
| 1777912944 | 11.67° C | 34% | 1000.5 hPa | - | - | - | - |
| 1777912043 | 11.67° C | 33% | 1000.4 hPa | - | - | - | - |
| 1777911143 | 11.67° C | 32% | 1000.4 hPa | - | - | - | - |
| 1777910242 | 11.67° C | 34% | 1000.4 hPa | - | - | - | - |
| 1777909340 | 11.67° C | 36% | 1000.3 hPa | - | - | - | - |
| 1777908439 | 11.67° C | 35% | 1000.4 hPa | - | - | - | - |
| 1777907539 | 11.11° C | 35% | 1000.4 hPa | - | - | - | - |
| 1777906638 | 11.67° C | 35% | 1000.2 hPa | - | - | - | - |
| 1777905737 | 11.67° C | 38% | 1000.1 hPa | - | - | - | - |
| 1777904836 | 11.67° C | 47% | 1000.2 hPa | - | - | - | - |
| 1777903935 | 11.67° C | 43% | 1000.2 hPa | - | - | - | - |
| 1777903034 | 11.67° C | 52% | 1000.2 hPa | - | - | - | - |
| 1777902133 | 11.67° C | 52% | 1000.4 hPa | - | - | - | - |
| 1777901233 | 10.56° C | 55% | 1000.4 hPa | - | - | - | - |
| 1777900332 | 10.56° C | 57% | 1000.6 hPa | - | - | - | - |
| 1777899431 | 10.56° C | 58% | 1000.7 hPa | - | - | - | - |
| 1777898531 | 9.44° C | 59% | 1000.7 hPa | - | - | - | - |
| 1777897630 | 8.33° C | 64% | 1000.7 hPa | - | - | - | - |
| 1777896729 | 9.44° C | 66% | 1000.6 hPa | - | - | - | - |
| 1777895829 | 10.56° C | 60% | 1000.4 hPa | - | - | - | - |
| 1777894928 | 11.11° C | 58% | 1000.4 hPa | - | - | - | - |
| 1777894027 | 10.56° C | 60% | 1000.5 hPa | - | - | - | - |
| 1777893125 | 9.44° C | 70% | 1000.5 hPa | - | - | - | - |
| 1777892223 | 10° C | 65% | 1000.7 hPa | - | - | - | - |
| 1777891322 | 8.33° C | 77% | 1000.7 hPa | - | - | - | - |
* Rain since midnight (hover to see other rain measurements)
** Current wind speed in m/s (hover to see current wind gust speed)